Time;durP1;ratioP1;P1;durP2;ratioP2;P2;SDS_P1;SDS_P2;PMS_P1;PMS_P2;Temp;Humidity;BMP_temperature;BMP_pressure;BME280_temperature;BME280_humidity;BME280_pressure;Samples;Min_cycle;Max_cycle;Signal;HPM_P1;HPM_P2
2024/01/10 00:01:35;;;;;;;3.83;3.20;;;;;;;-0.84;100.00;101604.06;5113154;28;20305;-67
2024/01/10 00:04:01;;;;;;;3.53;3.00;;;;;;;-0.81;100.00;101598.69;5112104;28;20462;-68
2024/01/10 00:06:26;;;;;;;3.60;3.20;;;;;;;-0.79;100.00;101613.41;5114212;27;20365;-67
2024/01/10 00:08:52;;;;;;;4.73;3.67;;;;;;;-0.98;100.00;101592.44;5113105;28;20035;-68
2024/01/10 00:11:17;;;;;;;4.20;3.57;;;;;;;-0.89;100.00;101617.31;5111882;28;20077;-66
2024/01/10 00:13:43;;;;;;;3.50;3.20;;;;;;;-1.12;100.00;101583.53;5113352;28;20121;-68
2024/01/10 00:16:11;;;;;;;4.27;3.40;;;;;;;-1.05;100.00;101616.31;5112986;28;20028;-69
2024/01/10 00:18:40;;;;;;;3.57;3.07;;;;;;;-1.03;100.00;101630.19;5112940;28;20039;-68
2024/01/10 00:21:06;;;;;;;4.23;3.77;;;;;;;-1.00;100.00;101636.13;5113191;28;20351;-67
2024/01/10 00:23:31;;;;;;;4.30;3.87;;;;;;;-1.08;100.00;101630.38;5111728;28;20663;-68
2024/01/10 00:25:57;;;;;;;5.47;3.83;;;;;;;-1.08;100.00;101642.59;5110906;28;20310;-68
2024/01/10 00:28:23;;;;;;;6.30;3.50;;;;;;;-1.13;100.00;101650.66;5111039;28;20157;-67
2024/01/10 00:30:49;;;;;;;5.27;4.57;;;;;;;-1.26;100.00;101642.47;5111066;28;20040;-71
2024/01/10 00:33:15;;;;;;;5.07;4.63;;;;;;;-1.23;100.00;101649.31;5113073;28;20414;-68
2024/01/10 00:35:40;;;;;;;5.53;4.00;;;;;;;-1.20;100.00;101646.56;5111413;28;20269;-68
2024/01/10 00:38:06;;;;;;;5.50;4.90;;;;;;;-1.19;100.00;101656.13;5113233;28;20043;-68
2024/01/10 00:40:31;;;;;;;6.20;4.87;;;;;;;-1.31;100.00;101640.97;5112422;28;20090;-66
2024/01/10 00:42:57;;;;;;;4.80;4.33;;;;;;;-1.27;100.00;101663.44;5112325;28;20047;-68
2024/01/10 00:45:22;;;;;;;4.60;4.10;;;;;;;-1.34;100.00;101641.09;5112637;28;20035;-67
2024/01/10 00:47:49;;;;;;;4.70;4.30;;;;;;;-1.21;100.00;101673.63;5112884;28;20379;-66
2024/01/10 00:50:14;;;;;;;5.70;4.30;;;;;;;-1.32;100.00;101660.19;5111674;28;20515;-69
2024/01/10 00:52:40;;;;;;;4.77;4.27;;;;;;;-1.29;100.00;101679.19;5113024;28;20309;-68
2024/01/10 00:55:06;;;;;;;8.73;5.27;;;;;;;-1.65;100.00;101636.31;5111510;28;20039;-69
2024/01/10 00:57:31;;;;;;;7.33;4.77;;;;;;;-1.32;100.00;101681.09;5111090;28;20042;-68
2024/01/10 00:59:57;;;;;;;5.80;4.20;;;;;;;-1.22;100.00;101697.22;5111026;28;20035;-68
2024/01/10 01:02:23;;;;;;;4.30;3.90;;;;;;;-1.42;100.00;101664.94;5112408;28;20379;-66
2024/01/10 01:04:49;;;;;;;4.13;3.70;;;;;;;-1.46;100.00;101667.72;5112670;28;20040;-72
2024/01/10 01:07:14;;;;;;;4.27;3.87;;;;;;;-1.44;100.00;101694.66;5112797;28;20794;-68
2024/01/10 01:09:40;;;;;;;5.60;3.60;;;;;;;-1.56;100.00;101678.56;5112145;28;20541;-67
2024/01/10 01:12:06;;;;;;;4.00;3.60;;;;;;;-1.70;100.00;101654.78;5112613;28;20538;-70
2024/01/10 01:14:31;;;;;;;4.90;3.80;;;;;;;-1.43;100.00;101688.53;5111119;28;20513;-67
2024/01/10 01:16:57;;;;;;;4.57;3.87;;;;;;;-1.60;100.00;101671.78;5112758;28;20590;-68
2024/01/10 01:19:22;;;;;;;4.17;3.43;;;;;;;-1.90;100.00;101642.53;5111290;28;20454;-68
2024/01/10 01:21:48;;;;;;;4.27;3.87;;;;;;;-1.53;100.00;101703.72;5094029;28;20027;-69
2024/01/10 01:24:13;;;;;;;4.70;3.80;;;;;;;-1.75;100.00;101667.16;5113073;27;20073;-68
2024/01/10 01:26:39;;;;;;;5.23;4.57;;;;;;;-1.63;100.00;101697.16;5110740;28;20055;-69
2024/01/10 01:29:04;;;;;;;4.70;4.20;;;;;;;-1.75;100.00;101682.81;5111812;28;20039;-69
2024/01/10 01:31:30;;;;;;;6.50;5.00;;;;;;;-1.81;100.00;101674.41;5110653;28;20039;-69
2024/01/10 01:33:55;;;;;;;8.37;5.77;;;;;;;-1.67;100.00;101703.44;5111916;28;20035;-68
2024/01/10 01:36:21;;;;;;;5.60;4.90;;;;;;;-1.63;100.00;101707.63;5111745;28;20024;-68
2024/01/10 01:38:47;;;;;;;6.67;4.83;;;;;;;-1.76;100.00;101678.50;5111858;28;20088;-67
2024/01/10 01:41:14;;;;;;;5.37;4.80;;;;;;;-1.64;100.00;101691.09;5111748;28;20071;-69
2024/01/10 01:43:40;;;;;;;6.47;4.90;;;;;;;-1.53;100.00;101715.94;5111524;28;20027;-67
2024/01/10 01:46:07;;;;;;;8.33;6.03;;;;;;;-1.62;100.00;101685.81;5111745;28;20281;-68
2024/01/10 01:48:33;;;;;;;6.87;5.27;;;;;;;-1.63;100.00;101687.56;5111620;28;20374;-68
2024/01/10 01:51:04;;;;;;;6.27;5.27;;;;;;;-1.51;100.00;101709.72;5110429;28;20289;-69
2024/01/10 01:53:30;;;;;;;7.27;5.37;;;;;;;-1.97;100.00;101642.84;5110489;28;20067;-67
2024/01/10 01:55:57;;;;;;;5.43;4.17;;;;;;;-1.69;100.00;101724.38;5116625;28;20253;-68
2024/01/10 01:58:23;;;;;;;4.83;3.43;;;;;;;-1.85;100.00;101707.63;5120829;28;20348;-67
2024/01/10 02:00:50;;;;;;;3.77;3.37;;;;;;;-1.90;100.00;101712.16;5120985;28;20269;-66
2024/01/10 02:03:18;;;;;;;4.33;3.40;;;;;;;-1.92;100.00;101721.81;5117108;28;20652;-67
2024/01/10 02:05:44;;;;;;;3.78;3.08;;;;;;;-1.95;100.00;101729.78;5111309;28;20399;-66
2024/01/10 02:08:09;;;;;;;3.87;2.40;;;;;;;-1.94;100.00;101731.47;5110119;28;20031;-67
2024/01/10 02:10:35;;;;;;;2.93;2.67;;;;;;;-2.12;100.00;101732.16;5111199;28;20044;-67
2024/01/10 02:13:01;;;;;;;3.20;2.77;;;;;;;-2.10;100.00;101743.41;5111541;28;20483;-69
2024/01/10 02:15:27;;;;;;;3.30;2.60;;;;;;;-2.15;100.00;101745.34;5111683;28;20043;-68
2024/01/10 02:18:14;;;;;;;5.80;3.08;;;;;;;-2.33;100.00;101750.31;5110171;28;20277;-68
2024/01/10 02:20:42;;;;;;;2.73;2.50;;;;;;;-2.36;100.00;101744.38;5111218;28;20035;-68
2024/01/10 02:23:07;;;;;;;2.85;2.45;;;;;;;-2.30;100.00;101747.63;5109766;28;20311;-70
2024/01/10 02:25:34;;;;;;;2.70;2.50;;;;;;;-2.50;100.00;101739.66;5109934;28;20035;-67
2024/01/10 02:28:00;;;;;;;3.50;2.70;;;;;;;-2.50;100.00;101760.53;5110580;28;20047;-69
2024/01/10 02:30:25;;;;;;;3.20;2.40;;;;;;;-2.55;100.00;101757.25;5111517;28;20269;-68
2024/01/10 02:32:51;;;;;;;2.83;2.43;;;;;;;-2.55;100.00;101760.69;5111188;28;20039;-69
2024/01/10 02:35:16;;;;;;;4.17;2.73;;;;;;;-2.55;100.00;101763.31;5109835;28;20092;-67
2024/01/10 02:37:42;;;;;;;2.53;2.33;;;;;;;-2.56;100.00;101763.38;5111227;28;20035;-66
2024/01/10 02:40:08;;;;;;;3.37;3.07;;;;;;;-2.62;100.00;101755.72;5109894;28;20040;-69
2024/01/10 02:42:34;;;;;;;2.83;2.63;;;;;;;-2.67;100.00;101752.44;5110367;28;20039;-67
2024/01/10 02:45:00;;;;;;;3.00;2.70;;;;;;;-2.68;100.00;101756.81;5110348;28;20474;-71
2024/01/10 02:47:25;;;;;;;3.13;2.80;;;;;;;-2.76;100.00;101739.72;5109765;28;20092;-68
2024/01/10 02:49:51;;;;;;;2.53;2.30;;;;;;;-2.75;100.00;101762.28;5111034;28;20402;-69
2024/01/10 02:52:16;;;;;;;3.17;2.87;;;;;;;-2.91;100.00;101760.19;5109619;28;20435;-68
2024/01/10 02:54:42;;;;;;;2.67;2.47;;;;;;;-3.09;100.00;101745.22;5110980;28;20054;-69
2024/01/10 02:57:08;;;;;;;2.53;2.33;;;;;;;-3.27;100.00;101735.38;5111423;28;20063;-67
2024/01/10 02:59:33;;;;;;;3.57;3.27;;;;;;;-3.17;100.00;101768.91;5111738;28;20122;-67
2024/01/10 03:02:02;;;;;;;3.43;2.60;;;;;;;-3.42;100.00;101730.69;5111017;28;20052;-68
2024/01/10 03:04:27;;;;;;;2.33;2.13;;;;;;;-3.32;100.00;101752.91;5110767;28;20074;-69
2024/01/10 03:06:53;;;;;;;4.17;2.90;;;;;;;-3.39;100.00;101751.44;5114325;28;20340;-68
2024/01/10 03:09:18;;;;;;;2.83;2.63;;;;;;;-3.48;100.00;101732.56;5115124;28;20441;-68
2024/01/10 03:11:44;;;;;;;2.83;2.60;;;;;;;-3.76;100.00;101701.38;5114304;28;20039;-69
2024/01/10 03:14:11;;;;;;;2.83;2.30;;;;;;;-3.40;100.00;101766.19;5114726;28;20070;-68
2024/01/10 03:16:37;;;;;;;4.15;3.15;;;;;;;-3.60;100.00;101758.16;5115259;28;20075;-69
2024/01/10 03:19:03;;;;;;;3.45;2.60;;;;;;;-4.00;100.00;101685.69;5115330;28;20043;-67
2024/01/10 03:21:29;;;;;;;2.88;2.47;;;;;;;-3.88;100.00;101724.31;5113088;28;20035;-68
2024/01/10 03:23:59;;;;;;;3.40;2.40;;;;;;;-3.87;100.00;101724.28;5115377;28;20043;-71
2024/01/10 03:26:26;;;;;;;2.80;2.60;;;;;;;-3.97;100.00;101717.66;5115116;28;20031;-69
2024/01/10 03:28:51;;;;;;;4.10;2.70;;;;;;;-3.82;100.00;101748.41;5113072;28;20043;-68
2024/01/10 03:31:17;;;;;;;3.50;3.00;;;;;;;-3.97;100.00;101707.25;5114378;28;20273;-68
2024/01/10 03:33:45;;;;;;;4.93;2.57;;;;;;;-3.69;100.00;101759.31;5112676;28;20063;-70
2024/01/10 03:36:15;;;;;;;2.53;2.33;;;;;;;-3.55;100.00;101788.34;5113687;28;20502;-68
2024/01/10 03:38:41;;;;;;;3.22;2.80;;;;;;;-3.57;100.00;101789.31;5113556;28;20042;-72
2024/01/10 03:41:07;;;;;;;2.50;2.30;;;;;;;-3.76;100.00;101761.25;5113535;28;20035;-71
2024/01/10 03:43:33;;;;;;;8.07;6.50;;;;;;;-3.56;100.00;101801.44;5114262;28;20051;-68
2024/01/10 03:45:58;;;;;;;2.20;2.00;;;;;;;-3.87;100.00;101754.66;5113611;28;20110;-69
2024/01/10 03:48:24;;;;;;;2.90;2.67;;;;;;;-3.72;100.00;101806.25;5114251;28;20414;-67
2024/01/10 03:50:50;;;;;;;2.73;2.40;;;;;;;-3.98;100.00;101783.59;5113543;28;20031;-67
2024/01/10 03:53:16;;;;;;;2.67;2.47;;;;;;;-3.95;100.00;101813.88;5114009;27;20185;-67
2024/01/10 03:55:41;;;;;;;3.83;2.73;;;;;;;-3.98;100.00;101832.19;5112615;28;20043;-66
2024/01/10 03:58:07;;;;;;;3.90;3.23;;;;;;;-4.06;100.00;101833.25;5114061;28;20042;-68
2024/01/10 04:00:32;;;;;;;4.77;2.93;;;;;;;-4.03;100.00;101831.47;5114010;28;20506;-68
2024/01/10 04:03:03;;;;;;;3.37;2.67;;;;;;;-4.17;100.00;101803.25;5114633;28;20055;-68
2024/01/10 04:05:29;;;;;;;3.78;3.30;;;;;;;-4.12;100.00;101806.56;5114972;28;20067;-68
2024/01/10 04:07:56;;;;;;;3.07;2.50;;;;;;;-4.02;100.00;101822.78;5114684;28;20510;-68
2024/01/10 04:10:22;;;;;;;3.00;2.80;;;;;;;-4.12;100.00;101798.75;5115472;28;20042;-67
2024/01/10 04:12:48;;;;;;;5.35;3.13;;;;;;;-3.98;100.00;101809.63;5115339;28;20184;-70
2024/01/10 04:15:14;;;;;;;3.27;2.97;;;;;;;-4.11;100.00;101767.50;5114441;28;20501;-67
2024/01/10 04:17:40;;;;;;;3.75;2.92;;;;;;;-3.96;100.00;101775.75;5111194;28;20356;-67
2024/01/10 04:20:07;;;;;;;5.17;3.37;;;;;;;-3.98;100.00;101772.34;5113802;28;20108;-68
2024/01/10 04:22:32;;;;;;;5.22;3.35;;;;;;;-3.85;100.00;101823.13;5113465;28;20518;-70
2024/01/10 04:24:59;;;;;;;3.43;3.13;;;;;;;-4.12;100.00;101815.22;5113227;28;20044;-67
2024/01/10 04:27:25;;;;;;;4.35;3.95;;;;;;;-4.05;100.00;101821.09;5113241;28;20556;-67
2024/01/10 04:29:50;;;;;;;6.97;4.00;;;;;;;-3.96;100.00;101830.41;5113157;28;20649;-66
2024/01/10 04:32:16;;;;;;;4.00;3.17;;;;;;;-4.31;100.00;101764.63;5113019;28;20035;-67
2024/01/10 04:34:41;;;;;;;3.83;3.43;;;;;;;-3.93;100.00;101828.56;5115063;28;20031;-66
2024/01/10 04:37:07;;;;;;;3.57;3.27;;;;;;;-4.12;100.00;101786.59;5114785;28;20039;-67
2024/01/10 04:39:34;;;;;;;5.70;4.37;;;;;;;-3.97;100.00;101820.91;5112473;28;20032;-66
2024/01/10 04:41:59;;;;;;;5.88;4.00;;;;;;;-4.08;100.00;101802.97;5114889;28;20031;-67
2024/01/10 04:44:25;;;;;;;5.00;4.30;;;;;;;-3.81;100.00;101819.53;5114381;28;20138;-66
2024/01/10 04:46:51;;;;;;;4.83;4.37;;;;;;;-3.97;100.00;101787.06;5114293;28;20034;-70
2024/01/10 04:49:16;;;;;;;4.20;3.70;;;;;;;-4.18;100.00;101760.78;5114339;28;20031;-66
2024/01/10 04:51:42;;;;;;;4.47;3.87;;;;;;;-3.93;100.00;101830.31;5113113;28;20040;-67
2024/01/10 04:54:09;;;;;;;5.18;4.72;;;;;;;-4.04;100.00;101843.63;5113142;28;20050;-68
2024/01/10 04:56:36;;;;;;;4.73;4.03;;;;;;;-4.27;100.00;101807.84;5114212;28;20036;-67
2024/01/10 04:59:02;;;;;;;5.72;4.18;;;;;;;-4.04;100.00;101829.78;5113059;28;20398;-67
2024/01/10 05:01:29;;;;;;;5.75;4.53;;;;;;;-4.01;100.00;101824.47;5112960;28;20168;-66
2024/01/10 05:03:54;;;;;;;4.45;4.05;;;;;;;-3.97;100.00;101839.09;5112504;28;20072;-66
2024/01/10 05:06:20;;;;;;;5.73;3.60;;;;;;;-3.97;100.00;101839.97;5112901;28;20044;-66
2024/01/10 05:08:45;;;;;;;4.70;3.60;;;;;;;-4.12;100.00;101849.03;5112982;28;20071;-66
2024/01/10 05:11:11;;;;;;;4.63;4.03;;;;;;;-4.16;100.00;101843.97;5113279;28;20043;-69
2024/01/10 05:13:37;;;;;;;5.68;4.63;;;;;;;-4.23;100.00;101840.69;5111473;28;20034;-66
2024/01/10 05:16:03;;;;;;;7.17;5.13;;;;;;;-4.07;100.00;101852.34;5104777;28;20035;-68
2024/01/10 05:18:28;;;;;;;8.40;5.40;;;;;;;-4.23;100.00;101827.69;5098390;28;20039;-69
2024/01/10 05:20:54;;;;;;;5.37;4.87;;;;;;;-4.13;100.00;101844.72;5098567;28;20043;-64
2024/01/10 05:23:20;;;;;;;9.93;4.90;;;;;;;-4.13;100.00;101842.13;5105246;28;20379;-67
2024/01/10 05:25:46;;;;;;;6.05;4.18;;;;;;;-4.18;100.00;101836.22;5098388;28;20407;-71
2024/01/10 05:28:12;;;;;;;5.60;3.97;;;;;;;-4.11;100.00;101845.53;5105697;28;20044;-70
2024/01/10 05:30:38;;;;;;;4.22;3.83;;;;;;;-4.32;100.00;101799.34;5106548;28;20140;-69
2024/01/10 05:33:03;;;;;;;9.17;5.20;;;;;;;-4.20;100.00;101809.38;5102278;28;20471;-68
2024/01/10 05:35:29;;;;;;;3.73;3.40;;;;;;;-4.00;100.00;101836.59;5094303;28;20063;-68
2024/01/10 05:37:54;;;;;;;3.73;3.23;;;;;;;-4.09;100.00;101817.72;5100815;28;20415;-65
2024/01/10 05:40:20;;;;;;;7.73;3.63;;;;;;;-4.22;100.00;101781.72;5101500;28;20039;-65
2024/01/10 05:42:45;;;;;;;5.83;3.93;;;;;;;-4.02;100.00;101812.38;5105807;28;20486;-64
2024/01/10 05:45:11;;;;;;;6.43;4.53;;;;;;;-4.07;100.00;101791.66;5105680;28;20067;-66
2024/01/10 05:47:37;;;;;;;6.77;4.87;;;;;;;-4.04;100.00;101829.78;5101791;28;20032;-67
2024/01/10 05:50:06;;;;;;;7.63;5.67;;;;;;;-4.15;100.00;101833.50;5104156;28;20058;-67
2024/01/10 05:52:32;;;;;;;;;;;;;;;-4.17;100.00;101840.50;5097632;28;20082;-68
2024/01/10 05:54:57;;;;;;;11.98;7.25;;;;;;;-4.35;100.00;101809.78;5106589;28;20294;-67
2024/01/10 05:57:23;;;;;;;11.60;6.97;;;;;;;-4.21;100.00;101818.09;5099068;28;20097;-67
2024/01/10 05:59:48;;;;;;;12.30;8.70;;;;;;;-4.13;100.00;101816.13;5102712;28;20044;-70
2024/01/10 06:02:19;;;;;;;14.27;8.00;;;;;;;-4.16;100.00;101811.00;5103758;28;20056;-69
2024/01/10 06:04:44;;;;;;;11.20;7.10;;;;;;;-4.18;100.00;101776.38;5095372;28;20118;-66
2024/01/10 06:07:10;;;;;;;12.97;8.47;;;;;;;-4.34;100.00;101743.88;5091713;28;20051;-65
2024/01/10 06:09:35;;;;;;;14.67;8.60;;;;;;;-3.86;100.00;101805.81;5102382;28;20040;-67
2024/01/10 06:12:01;;;;;;;14.17;8.17;;;;;;;-3.93;100.00;101801.69;5102864;28;20039;-67
2024/01/10 06:14:26;;;;;;;12.33;8.07;;;;;;;-4.33;100.00;101749.97;5109108;28;20032;-69
2024/01/10 06:16:52;;;;;;;9.17;6.70;;;;;;;-4.50;100.00;101740.88;5104390;28;20122;-68
2024/01/10 06:19:18;;;;;;;10.73;6.67;;;;;;;-4.57;100.00;101730.72;5106099;28;20043;-66
2024/01/10 06:21:44;;;;;;;10.98;6.78;;;;;;;-4.25;100.00;101779.19;5099183;28;20031;-67
2024/01/10 06:24:09;;;;;;;9.17;6.77;;;;;;;-4.49;100.00;101732.19;5097512;28;20097;-68
2024/01/10 06:26:35;;;;;;;6.67;5.77;;;;;;;-4.50;100.00;101711.44;5096156;28;20067;-66
2024/01/10 06:29:00;;;;;;;9.33;5.93;;;;;;;-4.31;100.00;101716.97;5097240;28;20146;-65
2024/01/10 06:31:28;;;;;;;11.60;5.95;;;;;;;-4.38;100.00;101675.50;5101488;28;20051;-67
2024/01/10 06:33:54;;;;;;;9.07;5.43;;;;;;;-3.87;100.00;101734.69;5106743;28;20507;-67
2024/01/10 06:36:19;;;;;;;7.30;5.57;;;;;;;-3.78;100.00;101768.22;5100349;28;20035;-68
2024/01/10 06:38:45;;;;;;;8.03;5.10;;;;;;;-3.89;100.00;101746.03;5099905;28;20136;-66
2024/01/10 06:41:13;;;;;;;9.93;5.60;;;;;;;-3.82;100.00;101752.75;5106280;27;20486;-66
2024/01/10 06:43:40;;;;;;;11.60;7.18;;;;;;;-3.86;100.00;101730.34;5103988;28;20486;-67
2024/01/10 06:46:06;;;;;;;6.93;5.38;;;;;;;-3.95;100.00;101721.06;5103314;28;20051;-66
2024/01/10 06:48:31;;;;;;;9.53;6.13;;;;;;;-4.04;100.00;101715.31;5100113;28;20035;-67
2024/01/10 06:50:57;;;;;;;6.70;5.77;;;;;;;-3.86;100.00;101754.59;5105213;27;20044;-67
2024/01/10 06:53:23;;;;;;;7.77;6.07;;;;;;;-3.84;100.00;101757.16;5101895;28;20177;-68
2024/01/10 06:55:48;;;;;;;13.10;6.63;;;;;;;-4.01;100.00;101710.00;5110558;27;20036;-67
2024/01/10 06:58:14;;;;;;;6.70;5.97;;;;;;;-3.84;100.00;101724.19;5103992;28;20040;-69
2024/01/10 07:00:39;;;;;;;6.53;5.07;;;;;;;-3.60;100.00;101782.44;5104459;28;20043;-64
2024/01/10 07:03:07;;;;;;;7.50;6.17;;;;;;;-3.58;100.00;101765.03;5110899;27;20109;-64
2024/01/10 07:05:33;;;;;;;9.70;6.63;;;;;;;-3.52;100.00;101758.75;5113721;28;20105;-66
2024/01/10 07:08:02;;;;;;;10.73;5.03;;;;;;;-3.72;100.00;101715.16;5101221;28;20040;-67
2024/01/10 07:10:29;;;;;;;8.75;6.30;;;;;;;-3.55;100.00;101736.28;5098890;28;20055;-68
2024/01/10 07:12:55;;;;;;;9.30;5.65;;;;;;;-3.63;100.00;101721.81;5109686;27;20509;-67
2024/01/10 07:15:21;;;;;;;11.80;6.65;;;;;;;-3.57;100.00;101738.09;5101399;28;20581;-68
2024/01/10 07:17:46;;;;;;;9.02;5.78;;;;;;;-3.55;100.00;101738.88;5106665;28;20096;-68
2024/01/10 07:20:12;;;;;;;9.40;7.27;;;;;;;-3.54;100.00;101751.00;5105994;28;20052;-66
2024/01/10 07:22:43;;;;;;;10.97;6.80;;;;;;;-3.74;100.00;101729.97;5104768;28;20126;-66
2024/01/10 07:25:13;;;;;;;9.55;7.25;;;;;;;-3.71;100.00;101729.88;5103179;28;20039;-69
2024/01/10 07:27:42;;;;;;;12.18;7.93;;;;;;;-3.80;100.00;101709.31;5103046;28;20051;-68
2024/01/10 07:30:13;;;;;;;19.10;11.40;;;;;;;-3.75;100.00;101718.72;5102885;28;20890;-68
2024/01/10 07:32:42;;;;;;;16.77;11.13;;;;;;;-3.80;100.00;101714.53;5108925;28;20040;-67
2024/01/10 07:35:11;;;;;;;14.90;11.38;;;;;;;-3.58;100.00;101749.41;5105388;28;20046;-67
2024/01/10 07:37:41;;;;;;;;;;;;;;;-3.49;100.00;101745.63;5107898;28;20031;-66
2024/01/10 07:40:08;;;;;;;14.75;9.98;;;;;;;-3.53;100.00;101739.69;5107652;28;19963;-66
2024/01/10 07:42:34;;;;;;;11.98;9.65;;;;;;;-3.49;100.00;101737.81;5112297;28;20043;-65
2024/01/10 07:45:04;;;;;;;19.90;9.93;;;;;;;-3.55;100.00;101728.47;5105750;28;20043;-70
2024/01/10 07:47:31;;;;;;;15.65;10.40;;;;;;;-3.68;100.00;101706.34;5106751;28;20151;-67
2024/01/10 07:49:57;;;;;;;15.50;9.00;;;;;;;-3.47;100.00;101729.09;5103165;28;20043;-67
2024/01/10 07:52:23;;;;;;;10.85;9.05;;;;;;;-3.50;100.00;101713.53;5107153;28;20040;-69
2024/01/10 07:54:48;;;;;;;13.17;8.77;;;;;;;-3.51;100.00;101691.00;5108807;28;20040;-65
2024/01/10 07:57:14;;;;;;;17.43;11.50;;;;;;;-3.32;100.00;101711.25;5111234;28;20352;-66
2024/01/10 07:59:39;;;;;;;20.10;11.13;;;;;;;-3.18;100.00;101703.81;5106787;28;20119;-67
2024/01/10 08:02:07;;;;;;;17.97;12.53;;;;;;;-3.19;100.00;101673.44;5101903;28;20051;-65
2024/01/10 08:04:32;;;;;;;23.75;13.57;;;;;;;-2.92;100.00;101710.72;5107861;28;20056;-67
2024/01/10 08:06:58;;;;;;;21.03;12.73;;;;;;;-3.17;100.00;101674.28;5102845;28;20051;-68
2024/01/10 08:09:24;;;;;;;17.80;11.17;;;;;;;-3.05;100.00;101699.88;5101307;28;20028;-68
2024/01/10 08:11:50;;;;;;;16.97;12.33;;;;;;;-3.05;100.00;101715.53;5095485;28;20680;-69
2024/01/10 08:14:16;;;;;;;18.57;13.47;;;;;;;-3.39;100.00;101668.94;5097214;28;20074;-69
2024/01/10 08:16:41;;;;;;;17.75;11.70;;;;;;;-3.41;100.00;101695.94;5105156;28;20066;-66
2024/01/10 08:19:08;;;;;;;15.43;10.73;;;;;;;-3.62;100.00;101685.31;5105305;28;20077;-66
2024/01/10 08:21:33;;;;;;;16.33;11.90;;;;;;;-3.70;100.00;101653.47;5105569;28;20475;-69
2024/01/10 08:24:01;;;;;;;16.30;12.30;;;;;;;-3.39;100.00;101691.53;5104867;28;20122;-68
2024/01/10 08:26:27;;;;;;;26.48;14.30;;;;;;;-3.50;100.00;101666.66;5106218;27;20039;-67
2024/01/10 08:28:52;;;;;;;20.77;12.70;;;;;;;-3.29;100.00;101683.34;5109824;28;20663;-67
2024/01/10 08:31:18;;;;;;;29.77;17.93;;;;;;;-3.32;100.00;101677.38;5106522;28;20913;-68
2024/01/10 08:33:44;;;;;;;30.27;16.73;;;;;;;-3.45;100.00;101650.91;5107018;27;20119;-69
2024/01/10 08:36:10;;;;;;;26.85;15.65;;;;;;;-3.68;100.00;101627.41;5106977;28;20028;-70
2024/01/10 08:38:37;;;;;;;31.33;16.47;;;;;;;-3.39;100.00;101655.06;5104727;28;20178;-68
2024/01/10 08:41:03;;;;;;;26.25;15.98;;;;;;;-3.28;100.00;101652.94;5105641;28;20383;-69
2024/01/10 08:43:29;;;;;;;27.05;16.08;;;;;;;-3.27;100.00;101658.09;5104819;28;20044;-67
2024/01/10 08:45:54;;;;;;;31.03;17.23;;;;;;;-3.29;100.00;101653.84;5108083;28;20032;-68
2024/01/10 08:48:20;;;;;;;26.37;16.27;;;;;;;-3.41;100.00;101641.25;5102297;27;20554;-66
2024/01/10 08:50:45;;;;;;;26.87;17.07;;;;;;;-3.48;100.00;101619.75;5104720;28;20035;-69
2024/01/10 08:53:11;;;;;;;25.20;17.17;;;;;;;-3.38;100.00;101605.53;5106455;28;20395;-69
2024/01/10 08:55:37;;;;;;;29.77;17.00;;;;;;;-3.13;100.00;101610.72;5108067;28;20050;-68
2024/01/10 08:58:05;;;;;;;26.03;17.17;;;;;;;-2.99;100.00;101615.44;5106663;28;20554;-68
2024/01/10 09:00:31;;;;;;;25.58;16.98;;;;;;;-2.94;100.00;101610.91;5106535;28;20074;-69
2024/01/10 09:02:58;;;;;;;30.60;18.70;;;;;;;-2.92;100.00;101606.47;5105422;28;20106;-69
2024/01/10 09:05:24;;;;;;;28.60;17.88;;;;;;;-2.90;100.00;101589.88;5104554;28;20628;-68
2024/01/10 09:07:50;;;;;;;24.87;15.97;;;;;;;-2.79;100.00;101601.69;5104317;28;20036;-67
2024/01/10 09:10:16;;;;;;;24.73;15.77;;;;;;;-3.02;100.00;101561.66;5112194;28;20047;-69
2024/01/10 09:12:45;;;;;;;22.37;16.47;;;;;;;-2.97;100.00;101571.91;5108550;28;20445;-69
2024/01/10 09:15:13;;;;;;;28.30;14.43;;;;;;;-3.07;100.00;101591.41;5093800;28;20554;-71
2024/01/10 09:17:40;;;;;;;28.08;16.60;;;;;;;-3.00;100.00;101583.31;5109759;28;20277;-70
2024/01/10 09:20:06;;;;;;;26.88;14.88;;;;;;;-3.18;100.00;101555.28;5100808;28;20602;-72
2024/01/10 09:22:32;;;;;;;25.30;14.32;;;;;;;-3.15;100.00;101552.63;5102420;28;20065;-68
2024/01/10 09:25:03;;;;;;;27.60;15.77;;;;;;;-3.16;100.00;101535.28;5105480;28;20120;-69
2024/01/10 09:27:31;;;;;;;20.50;13.93;;;;;;;-3.23;100.00;101520.75;5092069;28;20035;-69
2024/01/10 09:29:56;;;;;;;22.50;14.18;;;;;;;-3.23;100.00;101534.63;5099536;28;20507;-69
2024/01/10 09:32:22;;;;;;;18.40;13.87;;;;;;;-3.15;100.00;101531.78;5088337;28;20039;-70
2024/01/10 09:34:47;;;;;;;25.67;14.83;;;;;;;-3.06;100.00;101521.00;5093286;28;20043;-68
2024/01/10 09:37:13;;;;;;;21.73;14.53;;;;;;;-3.21;100.00;101498.94;5094019;28;20036;-67
2024/01/10 09:39:39;;;;;;;18.83;12.37;;;;;;;-3.07;100.00;101513.25;5098616;28;20379;-68
2024/01/10 09:42:06;;;;;;;19.57;12.60;;;;;;;-3.14;100.00;101510.00;5100295;28;20028;-68
2024/01/10 09:44:33;;;;;;;19.10;11.57;;;;;;;-3.07;100.00;101528.88;5103720;28;20028;-67
2024/01/10 09:46:58;;;;;;;15.35;11.23;;;;;;;-3.26;100.00;101487.84;5111533;28;20075;-69
2024/01/10 09:49:25;;;;;;;15.90;10.80;;;;;;;-2.97;100.00;101509.38;5099982;28;20131;-68
2024/01/10 09:51:57;;;;;;;15.10;9.88;;;;;;;-3.24;100.00;101459.16;5109520;28;20039;-68
2024/01/10 09:54:25;;;;;;;17.33;9.90;;;;;;;-2.91;100.00;101496.94;5104778;28;20043;-68
2024/01/10 09:56:51;;;;;;;15.88;9.68;;;;;;;-2.82;100.00;101487.94;5078386;28;20116;-66
2024/01/10 09:59:17;;;;;;;13.70;9.60;;;;;;;-3.07;100.00;101425.50;5100951;28;20123;-67
2024/01/10 10:01:43;;;;;;;14.67;9.17;;;;;;;-3.08;100.00;101418.59;5095747;28;20515;-68
2024/01/10 10:04:12;;;;;;;16.07;9.77;;;;;;;-2.73;100.00;101451.06;5106342;28;20066;-68
2024/01/10 10:06:40;;;;;;;17.33;9.82;;;;;;;-2.58;100.00;101439.19;5108021;28;20354;-66
2024/01/10 10:09:08;;;;;;;18.73;10.15;;;;;;;-2.48;100.00;101429.22;5101213;28;20111;-66
2024/01/10 10:11:34;;;;;;;15.15;9.15;;;;;;;-2.59;100.00;101429.69;5100872;28;20143;-68
2024/01/10 10:14:16;;;;;;;17.13;9.77;;;;;;;-2.76;100.00;101377.34;5104021;28;20095;-66
2024/01/10 10:16:41;;;;;;;16.23;9.18;;;;;;;-2.66;100.00;101394.31;5095960;28;20027;-66
2024/01/10 10:19:09;;;;;;;13.70;8.67;;;;;;;-2.74;100.00;101401.59;5108720;28;20486;-66
2024/01/10 10:21:35;;;;;;;11.85;8.05;;;;;;;-2.70;100.00;101411.00;5108778;28;20031;-66
2024/01/10 10:24:03;;;;;;;10.30;6.43;;;;;;;-2.64;100.00;101408.13;5110991;28;20093;-67
2024/01/10 10:26:32;;;;;;;13.85;8.38;;;;;;;-2.71;100.00;101389.28;5104628;28;20044;-66
2024/01/10 10:28:58;;;;;;;;;;;;;;;-2.54;100.00;101405.09;5114934;28;20046;-67
2024/01/10 10:31:24;;;;;;;10.97;7.93;;;;;;;-2.62;100.00;101380.22;5108401;28;19920;-67
2024/01/10 10:33:53;;;;;;;13.70;8.40;;;;;;;-2.62;100.00;101370.66;5110639;27;20039;-66
2024/01/10 10:36:20;;;;;;;14.15;8.15;;;;;;;-2.74;100.00;101341.63;5109364;28;20043;-67
2024/01/10 10:38:49;;;;;;;18.50;10.52;;;;;;;-2.71;100.00;101341.50;5111346;28;20096;-67
2024/01/10 10:41:15;;;;;;;18.98;10.23;;;;;;;-2.67;100.00;101340.47;5107025;28;20036;-69
2024/01/10 10:43:40;;;;;;;15.83;9.97;;;;;;;-2.50;100.00;101343.22;5109744;28;20040;-68
2024/01/10 10:46:14;;;;;;;15.67;9.50;;;;;;;-2.54;100.00;101307.75;5107329;28;20622;-69
2024/01/10 10:48:40;;;;;;;15.30;10.10;;;;;;;-2.27;100.00;101324.81;5107474;27;20395;-71
2024/01/10 10:51:21;;;;;;;14.00;10.57;;;;;;;-2.34;100.00;101302.50;5112514;28;20270;-68
2024/01/10 10:53:48;;;;;;;16.07;10.87;;;;;;;-2.43;100.00;101297.69;5113206;28;20301;-69
2024/01/10 10:56:13;;;;;;;19.93;10.27;;;;;;;-2.46;100.00;101276.97;5098092;28;20286;-68
2024/01/10 10:58:42;;;;;;;15.83;11.80;;;;;;;-2.36;100.00;101267.81;5105895;28;20372;-68
2024/01/10 11:01:09;;;;;;;22.05;11.77;;;;;;;-2.13;100.00;101290.28;5101341;28;20387;-68
2024/01/10 11:04:25;;;;;;;18.07;12.00;;;;;;;-1.99;100.00;101294.91;5095763;28;20059;-68
2024/01/10 11:06:50;;;;;;;19.87;11.43;;;;;;;-2.09;100.00;101267.50;5103989;28;20293;-67
2024/01/10 11:09:23;;;;;;;26.90;12.20;;;;;;;-1.92;100.00;101291.09;5104328;28;20345;-69